Salina, Kansas
Current Conditions -  °F | °C
As of 10:53 AM on Thursday 30 Oct 2014 (Local Time) from KSLN Reporting Station
Clear Clear  
Wind Chill: 62°   Ceiling: Unl
Heat Index: 62°   Visibility: 10mi
Dew Point: 38°   Wind: 12mph
Humidity: 41%   Direction: 330°NNW
Pressure: 30.16"   Gusts: NA
Location:  38.84°N, 97.61°W
Report Text: KSLN 301553Z 33010KT 10SM CLR 17/03 A3016 RMK AO2 SLP210 T01670033
Loading
Personal Weather Stations






























Interactive Weather Map
Tropical Storm Tracking
New forecast layout! Learn more

10-Day Weather Forecast

Advertisements
Track Severe Weather on mobile